sensor_id;sensor_type;location;lat;lon;timestamp;P1;durP1;ratioP1;P2;durP2;ratioP2
20671;SDS011;10495;50.922;4.760;2022-12-10T00:01:03;36.20;;;17.43;;
20671;SDS011;10495;50.922;4.760;2022-12-10T00:03:34;35.40;;;17.70;;
20671;SDS011;10495;50.922;4.760;2022-12-10T00:06:04;36.70;;;17.77;;
20671;SDS011;10495;50.922;4.760;2022-12-10T00:08:31;41.27;;;19.40;;
20671;SDS011;10495;50.922;4.760;2022-12-10T00:10:58;36.53;;;17.63;;
20671;SDS011;10495;50.922;4.760;2022-12-10T00:13:24;36.67;;;19.20;;
20671;SDS011;10495;50.922;4.760;2022-12-10T00:15:50;38.43;;;18.83;;
20671;SDS011;10495;50.922;4.760;2022-12-10T00:18:15;38.50;;;18.40;;
20671;SDS011;10495;50.922;4.760;2022-12-10T00:20:41;33.57;;;16.10;;
20671;SDS011;10495;50.922;4.760;2022-12-10T00:23:07;33.20;;;16.27;;
20671;SDS011;10495;50.922;4.760;2022-12-10T00:25:32;32.67;;;16.70;;
20671;SDS011;10495;50.922;4.760;2022-12-10T00:27:58;30.37;;;17.10;;
20671;SDS011;10495;50.922;4.760;2022-12-10T00:30:24;34.03;;;16.50;;
20671;SDS011;10495;50.922;4.760;2022-12-10T00:32:49;34.23;;;16.87;;
20671;SDS011;10495;50.922;4.760;2022-12-10T00:35:15;32.23;;;17.10;;
20671;SDS011;10495;50.922;4.760;2022-12-10T00:37:41;37.10;;;17.37;;
20671;SDS011;10495;50.922;4.760;2022-12-10T00:40:06;36.53;;;17.53;;
20671;SDS011;10495;50.922;4.760;2022-12-10T00:42:33;31.73;;;15.87;;
20671;SDS011;10495;50.922;4.760;2022-12-10T00:44:59;36.77;;;18.37;;
20671;SDS011;10495;50.922;4.760;2022-12-10T00:47:25;40.00;;;18.43;;
20671;SDS011;10495;50.922;4.760;2022-12-10T00:49:50;33.57;;;18.10;;
20671;SDS011;10495;50.922;4.760;2022-12-10T00:52:16;31.13;;;16.67;;
20671;SDS011;10495;50.922;4.760;2022-12-10T00:54:41;33.27;;;18.10;;
20671;SDS011;10495;50.922;4.760;2022-12-10T00:57:07;37.90;;;18.13;;
20671;SDS011;10495;50.922;4.760;2022-12-10T00:59:33;37.03;;;18.30;;
20671;SDS011;10495;50.922;4.760;2022-12-10T01:01:58;41.07;;;18.90;;
20671;SDS011;10495;50.922;4.760;2022-12-10T01:04:24;43.60;;;20.93;;
20671;SDS011;10495;50.922;4.760;2022-12-10T01:06:50;36.87;;;18.03;;
20671;SDS011;10495;50.922;4.760;2022-12-10T01:09:19;39.63;;;19.03;;
20671;SDS011;10495;50.922;4.760;2022-12-10T01:11:51;42.63;;;19.33;;
20671;SDS011;10495;50.922;4.760;2022-12-10T01:14:20;36.50;;;17.87;;
20671;SDS011;10495;50.922;4.760;2022-12-10T01:16:48;40.10;;;18.57;;
20671;SDS011;10495;50.922;4.760;2022-12-10T01:19:14;39.57;;;19.83;;
20671;SDS011;10495;50.922;4.760;2022-12-10T01:21:40;37.03;;;18.70;;
20671;SDS011;10495;50.922;4.760;2022-12-10T01:24:06;43.23;;;19.47;;
20671;SDS011;10495;50.922;4.760;2022-12-10T01:26:33;40.00;;;19.27;;
20671;SDS011;10495;50.922;4.760;2022-12-10T01:29:00;42.43;;;20.73;;
20671;SDS011;10495;50.922;4.760;2022-12-10T01:31:27;42.07;;;20.00;;
20671;SDS011;10495;50.922;4.760;2022-12-10T01:33:55;39.67;;;18.07;;
20671;SDS011;10495;50.922;4.760;2022-12-10T01:38:55;41.63;;;20.87;;
20671;SDS011;10495;50.922;4.760;2022-12-10T01:41:22;39.53;;;19.97;;
20671;SDS011;10495;50.922;4.760;2022-12-10T01:46:31;40.37;;;19.30;;
20671;SDS011;10495;50.922;4.760;2022-12-10T01:49:02;42.90;;;20.03;;
20671;SDS011;10495;50.922;4.760;2022-12-10T01:51:30;38.17;;;18.07;;
20671;SDS011;10495;50.922;4.760;2022-12-10T01:53:59;39.00;;;18.67;;
20671;SDS011;10495;50.922;4.760;2022-12-10T01:56:26;41.10;;;17.53;;
20671;SDS011;10495;50.922;4.760;2022-12-10T01:58:53;36.70;;;18.70;;
20671;SDS011;10495;50.922;4.760;2022-12-10T02:07:02;39.17;;;18.33;;
20671;SDS011;10495;50.922;4.760;2022-12-10T02:12:49;36.03;;;17.63;;
20671;SDS011;10495;50.922;4.760;2022-12-10T02:15:30;40.00;;;17.90;;
20671;SDS011;10495;50.922;4.760;2022-12-10T02:20:32;41.00;;;18.50;;
20671;SDS011;10495;50.922;4.760;2022-12-10T02:23:15;35.47;;;16.93;;
20671;SDS011;10495;50.922;4.760;2022-12-10T02:25:48;35.90;;;16.93;;
20671;SDS011;10495;50.922;4.760;2022-12-10T02:28:41;33.33;;;16.67;;
20671;SDS011;10495;50.922;4.760;2022-12-10T02:31:17;30.33;;;15.27;;
20671;SDS011;10495;50.922;4.760;2022-12-10T02:33:48;39.27;;;16.97;;
20671;SDS011;10495;50.922;4.760;2022-12-10T02:36:16;29.53;;;14.47;;
20671;SDS011;10495;50.922;4.760;2022-12-10T02:38:46;35.57;;;17.07;;
20671;SDS011;10495;50.922;4.760;2022-12-10T02:41:14;32.03;;;16.27;;
20671;SDS011;10495;50.922;4.760;2022-12-10T02:43:52;34.47;;;17.03;;
20671;SDS011;10495;50.922;4.760;2022-12-10T02:46:21;36.63;;;16.73;;
20671;SDS011;10495;50.922;4.760;2022-12-10T02:48:49;35.93;;;17.37;;
20671;SDS011;10495;50.922;4.760;2022-12-10T02:51:16;35.60;;;16.30;;
20671;SDS011;10495;50.922;4.760;2022-12-10T02:53:44;29.63;;;15.07;;
20671;SDS011;10495;50.922;4.760;2022-12-10T02:56:18;33.20;;;15.80;;
20671;SDS011;10495;50.922;4.760;2022-12-10T03:03:57;36.07;;;17.93;;
20671;SDS011;10495;50.922;4.760;2022-12-10T03:06:27;38.90;;;17.50;;
20671;SDS011;10495;50.922;4.760;2022-12-10T03:09:01;35.70;;;16.77;;
20671;SDS011;10495;50.922;4.760;2022-12-10T03:11:30;36.33;;;16.53;;
20671;SDS011;10495;50.922;4.760;2022-12-10T03:16:25;35.03;;;16.27;;
20671;SDS011;10495;50.922;4.760;2022-12-10T03:18:57;35.70;;;17.20;;
20671;SDS011;10495;50.922;4.760;2022-12-10T03:21:27;38.93;;;18.23;;
20671;SDS011;10495;50.922;4.760;2022-12-10T03:23:55;29.10;;;15.03;;
20671;SDS011;10495;50.922;4.760;2022-12-10T03:26:22;36.10;;;17.87;;
20671;SDS011;10495;50.922;4.760;2022-12-10T03:28:52;36.73;;;18.43;;
20671;SDS011;10495;50.922;4.760;2022-12-10T03:31:23;34.93;;;16.67;;
20671;SDS011;10495;50.922;4.760;2022-12-10T03:33:49;35.10;;;16.53;;
20671;SDS011;10495;50.922;4.760;2022-12-10T03:36:15;37.90;;;17.97;;
20671;SDS011;10495;50.922;4.760;2022-12-10T03:38:43;37.20;;;16.43;;
20671;SDS011;10495;50.922;4.760;2022-12-10T03:41:09;35.27;;;16.77;;
20671;SDS011;10495;50.922;4.760;2022-12-10T03:43:34;36.20;;;17.80;;
20671;SDS011;10495;50.922;4.760;2022-12-10T03:46:00;37.33;;;16.50;;
20671;SDS011;10495;50.922;4.760;2022-12-10T03:48:26;35.63;;;16.73;;
20671;SDS011;10495;50.922;4.760;2022-12-10T03:50:51;39.67;;;17.07;;
20671;SDS011;10495;50.922;4.760;2022-12-10T03:53:17;35.23;;;15.60;;
20671;SDS011;10495;50.922;4.760;2022-12-10T03:55:43;41.23;;;16.50;;
20671;SDS011;10495;50.922;4.760;2022-12-10T03:58:09;32.13;;;15.67;;
20671;SDS011;10495;50.922;4.760;2022-12-10T04:00:34;33.23;;;15.70;;
20671;SDS011;10495;50.922;4.760;2022-12-10T04:03:00;38.17;;;16.73;;
20671;SDS011;10495;50.922;4.760;2022-12-10T04:05:26;33.83;;;16.17;;
20671;SDS011;10495;50.922;4.760;2022-12-10T04:07:51;32.30;;;16.50;;
20671;SDS011;10495;50.922;4.760;2022-12-10T04:10:17;36.53;;;16.70;;
20671;SDS011;10495;50.922;4.760;2022-12-10T04:12:43;36.40;;;16.90;;
20671;SDS011;10495;50.922;4.760;2022-12-10T04:15:28;37.67;;;17.70;;
20671;SDS011;10495;50.922;4.760;2022-12-10T04:18:12;39.50;;;17.63;;
20671;SDS011;10495;50.922;4.760;2022-12-10T04:20:41;37.93;;;16.63;;
20671;SDS011;10495;50.922;4.760;2022-12-10T04:23:30;45.43;;;17.37;;
20671;SDS011;10495;50.922;4.760;2022-12-10T04:26:14;36.77;;;16.70;;
20671;SDS011;10495;50.922;4.760;2022-12-10T04:28:58;40.47;;;18.53;;
20671;SDS011;10495;50.922;4.760;2022-12-10T04:31:24;40.23;;;17.97;;
20671;SDS011;10495;50.922;4.760;2022-12-10T04:33:50;41.87;;;19.30;;
20671;SDS011;10495;50.922;4.760;2022-12-10T04:36:15;39.57;;;18.33;;
20671;SDS011;10495;50.922;4.760;2022-12-10T04:38:41;37.50;;;17.43;;
20671;SDS011;10495;50.922;4.760;2022-12-10T04:41:06;35.60;;;16.27;;
20671;SDS011;10495;50.922;4.760;2022-12-10T04:43:40;38.87;;;18.13;;
20671;SDS011;10495;50.922;4.760;2022-12-10T04:46:08;44.87;;;19.80;;
20671;SDS011;10495;50.922;4.760;2022-12-10T04:48:35;38.67;;;19.10;;
20671;SDS011;10495;50.922;4.760;2022-12-10T04:51:00;42.53;;;18.97;;
20671;SDS011;10495;50.922;4.760;2022-12-10T04:53:26;43.27;;;18.80;;
20671;SDS011;10495;50.922;4.760;2022-12-10T04:55:51;36.23;;;16.77;;
20671;SDS011;10495;50.922;4.760;2022-12-10T04:58:17;42.50;;;16.80;;
20671;SDS011;10495;50.922;4.760;2022-12-10T05:00:43;41.80;;;17.03;;
20671;SDS011;10495;50.922;4.760;2022-12-10T05:03:08;36.80;;;16.10;;
20671;SDS011;10495;50.922;4.760;2022-12-10T05:05:34;35.50;;;14.93;;
20671;SDS011;10495;50.922;4.760;2022-12-10T05:08:00;45.40;;;19.57;;
20671;SDS011;10495;50.922;4.760;2022-12-10T05:10:26;36.50;;;16.07;;
20671;SDS011;10495;50.922;4.760;2022-12-10T05:12:52;39.30;;;17.37;;
20671;SDS011;10495;50.922;4.760;2022-12-10T05:15:17;38.50;;;17.53;;
20671;SDS011;10495;50.922;4.760;2022-12-10T05:17:43;38.13;;;17.27;;
20671;SDS011;10495;50.922;4.760;2022-12-10T05:20:09;38.93;;;18.10;;
20671;SDS011;10495;50.922;4.760;2022-12-10T05:22:35;41.23;;;19.00;;
20671;SDS011;10495;50.922;4.760;2022-12-10T05:25:19;37.43;;;16.53;;
20671;SDS011;10495;50.922;4.760;2022-12-10T05:27:44;40.93;;;18.97;;
20671;SDS011;10495;50.922;4.760;2022-12-10T05:30:10;49.20;;;19.23;;
20671;SDS011;10495;50.922;4.760;2022-12-10T05:32:36;42.13;;;18.70;;
20671;SDS011;10495;50.922;4.760;2022-12-10T05:35:02;43.37;;;19.27;;
20671;SDS011;10495;50.922;4.760;2022-12-10T05:37:28;46.23;;;19.37;;
20671;SDS011;10495;50.922;4.760;2022-12-10T05:39:54;40.13;;;17.80;;
20671;SDS011;10495;50.922;4.760;2022-12-10T05:42:20;41.67;;;19.57;;
20671;SDS011;10495;50.922;4.760;2022-12-10T05:44:45;42.93;;;19.90;;
20671;SDS011;10495;50.922;4.760;2022-12-10T05:47:11;47.60;;;20.70;;
20671;SDS011;10495;50.922;4.760;2022-12-10T05:49:36;46.60;;;20.70;;
20671;SDS011;10495;50.922;4.760;2022-12-10T05:52:02;48.63;;;21.10;;
20671;SDS011;10495;50.922;4.760;2022-12-10T05:54:28;48.60;;;20.47;;
20671;SDS011;10495;50.922;4.760;2022-12-10T05:56:53;48.27;;;21.63;;
20671;SDS011;10495;50.922;4.760;2022-12-10T05:59:19;46.03;;;20.27;;
20671;SDS011;10495;50.922;4.760;2022-12-10T06:01:45;44.67;;;20.70;;
20671;SDS011;10495;50.922;4.760;2022-12-10T06:04:11;47.53;;;20.83;;
20671;SDS011;10495;50.922;4.760;2022-12-10T06:06:37;42.27;;;19.70;;
20671;SDS011;10495;50.922;4.760;2022-12-10T06:09:04;42.00;;;18.17;;
20671;SDS011;10495;50.922;4.760;2022-12-10T06:11:32;49.83;;;21.20;;
20671;SDS011;10495;50.922;4.760;2022-12-10T06:13:58;44.50;;;20.03;;
20671;SDS011;10495;50.922;4.760;2022-12-10T06:16:25;44.20;;;20.70;;
20671;SDS011;10495;50.922;4.760;2022-12-10T06:18:52;46.50;;;21.60;;
20671;SDS011;10495;50.922;4.760;2022-12-10T06:21:18;46.40;;;20.00;;
20671;SDS011;10495;50.922;4.760;2022-12-10T06:23:45;40.87;;;19.67;;
20671;SDS011;10495;50.922;4.760;2022-12-10T06:26:12;43.77;;;19.60;;
20671;SDS011;10495;50.922;4.760;2022-12-10T06:28:43;39.10;;;18.33;;
20671;SDS011;10495;50.922;4.760;2022-12-10T06:31:10;43.60;;;20.13;;
20671;SDS011;10495;50.922;4.760;2022-12-10T06:33:35;47.30;;;19.50;;
20671;SDS011;10495;50.922;4.760;2022-12-10T06:36:05;43.33;;;19.83;;
20671;SDS011;10495;50.922;4.760;2022-12-10T06:38:32;47.03;;;20.30;;
20671;SDS011;10495;50.922;4.760;2022-12-10T06:40:59;49.73;;;20.87;;
20671;SDS011;10495;50.922;4.760;2022-12-10T06:43:27;46.17;;;19.60;;
20671;SDS011;10495;50.922;4.760;2022-12-10T06:45:54;39.87;;;18.57;;
20671;SDS011;10495;50.922;4.760;2022-12-10T06:48:19;41.87;;;18.07;;
20671;SDS011;10495;50.922;4.760;2022-12-10T06:50:45;43.43;;;19.60;;
20671;SDS011;10495;50.922;4.760;2022-12-10T06:53:10;45.63;;;19.77;;
20671;SDS011;10495;50.922;4.760;2022-12-10T06:55:36;43.33;;;18.80;;
20671;SDS011;10495;50.922;4.760;2022-12-10T06:58:03;45.87;;;19.70;;
20671;SDS011;10495;50.922;4.760;2022-12-10T07:00:29;41.37;;;19.63;;
20671;SDS011;10495;50.922;4.760;2022-12-10T07:02:54;50.17;;;20.67;;
20671;SDS011;10495;50.922;4.760;2022-12-10T07:05:20;44.73;;;19.00;;
20671;SDS011;10495;50.922;4.760;2022-12-10T07:07:45;45.73;;;19.87;;
20671;SDS011;10495;50.922;4.760;2022-12-10T07:10:11;36.97;;;15.93;;
20671;SDS011;10495;50.922;4.760;2022-12-10T07:12:37;40.43;;;19.10;;
20671;SDS011;10495;50.922;4.760;2022-12-10T07:15:02;33.70;;;17.47;;
20671;SDS011;10495;50.922;4.760;2022-12-10T07:17:28;47.03;;;20.20;;
20671;SDS011;10495;50.922;4.760;2022-12-10T07:19:54;43.43;;;19.43;;
20671;SDS011;10495;50.922;4.760;2022-12-10T07:22:19;44.63;;;17.37;;
20671;SDS011;10495;50.922;4.760;2022-12-10T07:24:45;48.90;;;22.17;;
20671;SDS011;10495;50.922;4.760;2022-12-10T07:27:13;52.20;;;20.27;;
20671;SDS011;10495;50.922;4.760;2022-12-10T07:29:38;44.97;;;18.50;;
20671;SDS011;10495;50.922;4.760;2022-12-10T07:32:04;50.47;;;20.97;;
20671;SDS011;10495;50.922;4.760;2022-12-10T07:34:29;48.43;;;19.63;;
20671;SDS011;10495;50.922;4.760;2022-12-10T07:36:55;39.67;;;18.73;;
20671;SDS011;10495;50.922;4.760;2022-12-10T07:39:21;50.10;;;20.37;;
20671;SDS011;10495;50.922;4.760;2022-12-10T07:41:47;46.23;;;17.43;;
20671;SDS011;10495;50.922;4.760;2022-12-10T07:44:17;37.60;;;19.03;;
20671;SDS011;10495;50.922;4.760;2022-12-10T07:46:45;41.20;;;16.47;;
20671;SDS011;10495;50.922;4.760;2022-12-10T07:49:12;46.63;;;18.97;;
20671;SDS011;10495;50.922;4.760;2022-12-10T07:51:39;41.70;;;17.90;;
20671;SDS011;10495;50.922;4.760;2022-12-10T07:54:04;44.93;;;19.90;;
20671;SDS011;10495;50.922;4.760;2022-12-10T07:56:30;46.17;;;20.50;;
20671;SDS011;10495;50.922;4.760;2022-12-10T07:58:56;52.43;;;22.27;;
20671;SDS011;10495;50.922;4.760;2022-12-10T08:01:22;49.43;;;20.90;;
20671;SDS011;10495;50.922;4.760;2022-12-10T08:03:50;47.30;;;19.47;;
20671;SDS011;10495;50.922;4.760;2022-12-10T08:06:18;51.60;;;22.50;;
20671;SDS011;10495;50.922;4.760;2022-12-10T08:08:45;60.07;;;22.63;;
20671;SDS011;10495;50.922;4.760;2022-12-10T08:11:12;48.00;;;21.37;;
20671;SDS011;10495;50.922;4.760;2022-12-10T08:13:38;55.37;;;22.20;;
20671;SDS011;10495;50.922;4.760;2022-12-10T08:16:10;51.90;;;23.27;;
20671;SDS011;10495;50.922;4.760;2022-12-10T08:18:38;56.80;;;23.17;;
20671;SDS011;10495;50.922;4.760;2022-12-10T08:21:08;57.50;;;22.73;;
20671;SDS011;10495;50.922;4.760;2022-12-10T08:23:36;54.93;;;22.80;;
20671;SDS011;10495;50.922;4.760;2022-12-10T08:26:24;58.57;;;24.07;;
20671;SDS011;10495;50.922;4.760;2022-12-10T08:28:49;55.90;;;23.67;;
20671;SDS011;10495;50.922;4.760;2022-12-10T08:31:16;54.93;;;23.20;;
20671;SDS011;10495;50.922;4.760;2022-12-10T08:33:42;60.10;;;25.23;;
20671;SDS011;10495;50.922;4.760;2022-12-10T08:36:09;53.87;;;21.87;;
20671;SDS011;10495;50.922;4.760;2022-12-10T08:38:36;56.23;;;23.27;;
20671;SDS011;10495;50.922;4.760;2022-12-10T08:41:06;45.57;;;20.47;;
20671;SDS011;10495;50.922;4.760;2022-12-10T08:43:33;48.77;;;21.30;;
20671;SDS011;10495;50.922;4.760;2022-12-10T08:45:59;48.07;;;20.33;;
20671;SDS011;10495;50.922;4.760;2022-12-10T08:48:24;53.57;;;20.93;;
20671;SDS011;10495;50.922;4.760;2022-12-10T08:50:50;54.87;;;22.70;;
20671;SDS011;10495;50.922;4.760;2022-12-10T08:53:16;51.87;;;21.40;;
20671;SDS011;10495;50.922;4.760;2022-12-10T08:55:41;54.07;;;20.43;;
20671;SDS011;10495;50.922;4.760;2022-12-10T08:58:07;51.87;;;20.93;;
20671;SDS011;10495;50.922;4.760;2022-12-10T09:00:34;58.97;;;22.73;;
20671;SDS011;10495;50.922;4.760;2022-12-10T09:03:00;50.77;;;20.63;;
20671;SDS011;10495;50.922;4.760;2022-12-10T09:05:26;50.50;;;20.50;;
20671;SDS011;10495;50.922;4.760;2022-12-10T09:07:52;44.43;;;18.47;;
20671;SDS011;10495;50.922;4.760;2022-12-10T09:10:17;42.80;;;18.20;;
20671;SDS011;10495;50.922;4.760;2022-12-10T09:12:43;46.07;;;19.20;;
20671;SDS011;10495;50.922;4.760;2022-12-10T09:15:09;44.30;;;18.27;;
20671;SDS011;10495;50.922;4.760;2022-12-10T09:17:35;50.73;;;19.57;;
20671;SDS011;10495;50.922;4.760;2022-12-10T09:20:03;49.10;;;20.17;;
20671;SDS011;10495;50.922;4.760;2022-12-10T09:22:29;51.63;;;19.70;;
20671;SDS011;10495;50.922;4.760;2022-12-10T09:24:55;46.40;;;20.30;;
20671;SDS011;10495;50.922;4.760;2022-12-10T09:27:21;48.20;;;19.23;;
20671;SDS011;10495;50.922;4.760;2022-12-10T09:29:46;39.17;;;16.97;;
20671;SDS011;10495;50.922;4.760;2022-12-10T09:32:12;43.17;;;18.13;;
20671;SDS011;10495;50.922;4.760;2022-12-10T09:34:37;37.80;;;15.90;;
20671;SDS011;10495;50.922;4.760;2022-12-10T09:37:03;41.43;;;17.60;;
20671;SDS011;10495;50.922;4.760;2022-12-10T09:39:28;40.87;;;16.60;;
20671;SDS011;10495;50.922;4.760;2022-12-10T09:53:32;36.80;;;17.43;;
20671;SDS011;10495;50.922;4.760;2022-12-10T09:55:58;36.97;;;17.07;;
20671;SDS011;10495;50.922;4.760;2022-12-10T09:58:25;43.50;;;16.47;;
20671;SDS011;10495;50.922;4.760;2022-12-10T10:01:15;41.93;;;18.17;;
20671;SDS011;10495;50.922;4.760;2022-12-10T10:03:40;43.67;;;18.13;;
20671;SDS011;10495;50.922;4.760;2022-12-10T10:06:11;42.37;;;17.97;;
20671;SDS011;10495;50.922;4.760;2022-12-10T10:08:39;42.77;;;16.63;;
20671;SDS011;10495;50.922;4.760;2022-12-10T10:11:13;38.60;;;17.10;;
20671;SDS011;10495;50.922;4.760;2022-12-10T10:14:27;47.00;;;18.33;;
20671;SDS011;10495;50.922;4.760;2022-12-10T10:16:35;41.63;;;17.80;;
20671;SDS011;10495;50.922;4.760;2022-12-10T10:19:14;39.03;;;16.97;;
20671;SDS011;10495;50.922;4.760;2022-12-10T10:21:45;43.00;;;17.67;;
20671;SDS011;10495;50.922;4.760;2022-12-10T10:24:13;46.53;;;20.10;;
20671;SDS011;10495;50.922;4.760;2022-12-10T10:26:47;37.30;;;16.30;;
20671;SDS011;10495;50.922;4.760;2022-12-10T10:29:18;36.07;;;15.80;;
20671;SDS011;10495;50.922;4.760;2022-12-10T10:31:46;40.70;;;16.37;;
20671;SDS011;10495;50.922;4.760;2022-12-10T10:34:21;38.37;;;16.03;;
20671;SDS011;10495;50.922;4.760;2022-12-10T10:36:52;42.50;;;16.60;;
20671;SDS011;10495;50.922;4.760;2022-12-10T10:39:28;39.67;;;16.03;;
20671;SDS011;10495;50.922;4.760;2022-12-10T10:41:57;40.90;;;18.10;;
20671;SDS011;10495;50.922;4.760;2022-12-10T10:44:25;42.63;;;18.30;;
20671;SDS011;10495;50.922;4.760;2022-12-10T10:46:53;40.27;;;18.27;;
20671;SDS011;10495;50.922;4.760;2022-12-10T10:49:22;35.00;;;14.87;;
20671;SDS011;10495;50.922;4.760;2022-12-10T10:51:53;38.70;;;15.57;;
20671;SDS011;10495;50.922;4.760;2022-12-10T10:54:57;39.20;;;16.47;;
20671;SDS011;10495;50.922;4.760;2022-12-10T11:00:31;32.70;;;14.87;;
20671;SDS011;10495;50.922;4.760;2022-12-10T11:02:50;37.27;;;15.70;;
20671;SDS011;10495;50.922;4.760;2022-12-10T11:05:17;42.93;;;17.73;;
20671;SDS011;10495;50.922;4.760;2022-12-10T11:07:57;45.43;;;18.07;;
20671;SDS011;10495;50.922;4.760;2022-12-10T11:10:25;42.07;;;16.70;;
20671;SDS011;10495;50.922;4.760;2022-12-10T11:12:55;37.20;;;16.30;;
20671;SDS011;10495;50.922;4.760;2022-12-10T11:17:57;34.50;;;16.23;;
20671;SDS011;10495;50.922;4.760;2022-12-10T11:20:25;39.13;;;17.43;;
20671;SDS011;10495;50.922;4.760;2022-12-10T11:28:02;42.63;;;18.20;;
20671;SDS011;10495;50.922;4.760;2022-12-10T11:30:36;40.50;;;17.70;;
20671;SDS011;10495;50.922;4.760;2022-12-10T11:35:55;43.60;;;17.50;;
20671;SDS011;10495;50.922;4.760;2022-12-10T11:46:56;33.77;;;15.63;;
20671;SDS011;10495;50.922;4.760;2022-12-10T11:49:35;37.30;;;18.17;;
20671;SDS011;10495;50.922;4.760;2022-12-10T11:55:02;41.43;;;18.03;;
20671;SDS011;10495;50.922;4.760;2022-12-10T11:58:52;37.60;;;17.27;;
20671;SDS011;10495;50.922;4.760;2022-12-10T12:06:57;36.50;;;16.53;;
20671;SDS011;10495;50.922;4.760;2022-12-10T12:14:29;33.50;;;16.00;;
20671;SDS011;10495;50.922;4.760;2022-12-10T12:17:19;34.60;;;15.63;;
20671;SDS011;10495;50.922;4.760;2022-12-10T12:24:48;44.53;;;17.73;;
20671;SDS011;10495;50.922;4.760;2022-12-10T12:30:15;36.40;;;17.27;;
20671;SDS011;10495;50.922;4.760;2022-12-10T12:32:46;34.67;;;17.27;;
20671;SDS011;10495;50.922;4.760;2022-12-10T12:40:52;37.83;;;18.60;;
20671;SDS011;10495;50.922;4.760;2022-12-10T12:46:01;35.47;;;16.77;;
20671;SDS011;10495;50.922;4.760;2022-12-10T12:51:26;39.20;;;17.23;;
20671;SDS011;10495;50.922;4.760;2022-12-10T12:54:11;35.67;;;16.47;;
20671;SDS011;10495;50.922;4.760;2022-12-10T13:02:02;39.10;;;17.87;;
20671;SDS011;10495;50.922;4.760;2022-12-10T13:04:42;40.73;;;17.90;;
20671;SDS011;10495;50.922;4.760;2022-12-10T13:12:30;41.30;;;18.77;;
20671;SDS011;10495;50.922;4.760;2022-12-10T13:15:02;40.90;;;18.73;;
20671;SDS011;10495;50.922;4.760;2022-12-10T13:28:28;46.57;;;19.23;;
20671;SDS011;10495;50.922;4.760;2022-12-10T13:36:36;34.77;;;15.50;;
20671;SDS011;10495;50.922;4.760;2022-12-10T13:39:21;41.40;;;17.03;;
20671;SDS011;10495;50.922;4.760;2022-12-10T13:50:01;35.03;;;17.03;;
20671;SDS011;10495;50.922;4.760;2022-12-10T14:06:39;35.67;;;16.23;;
20671;SDS011;10495;50.922;4.760;2022-12-10T14:11:53;39.60;;;17.37;;
20671;SDS011;10495;50.922;4.760;2022-12-10T14:14:22;32.17;;;15.87;;
20671;SDS011;10495;50.922;4.760;2022-12-10T14:16:55;32.83;;;16.80;;
20671;SDS011;10495;50.922;4.760;2022-12-10T14:19:21;39.87;;;16.40;;
20671;SDS011;10495;50.922;4.760;2022-12-10T14:21:51;39.20;;;18.13;;
20671;SDS011;10495;50.922;4.760;2022-12-10T14:24:28;34.50;;;16.03;;
20671;SDS011;10495;50.922;4.760;2022-12-10T14:26:58;34.37;;;16.37;;
20671;SDS011;10495;50.922;4.760;2022-12-10T14:29:26;38.27;;;18.33;;
20671;SDS011;10495;50.922;4.760;2022-12-10T14:31:51;39.87;;;18.13;;
20671;SDS011;10495;50.922;4.760;2022-12-10T14:34:18;38.40;;;17.33;;
20671;SDS011;10495;50.922;4.760;2022-12-10T14:36:49;43.17;;;17.73;;
20671;SDS011;10495;50.922;4.760;2022-12-10T14:39:19;39.07;;;17.63;;
20671;SDS011;10495;50.922;4.760;2022-12-10T14:41:49;38.97;;;17.53;;
20671;SDS011;10495;50.922;4.760;2022-12-10T14:44:17;39.43;;;17.60;;
20671;SDS011;10495;50.922;4.760;2022-12-10T14:46:48;38.77;;;16.80;;
20671;SDS011;10495;50.922;4.760;2022-12-10T14:49:16;38.50;;;17.40;;
20671;SDS011;10495;50.922;4.760;2022-12-10T14:51:47;36.23;;;15.73;;
20671;SDS011;10495;50.922;4.760;2022-12-10T14:57:12;39.87;;;17.70;;
20671;SDS011;10495;50.922;4.760;2022-12-10T14:59:48;37.10;;;18.40;;
20671;SDS011;10495;50.922;4.760;2022-12-10T15:02:38;44.83;;;19.13;;
20671;SDS011;10495;50.922;4.760;2022-12-10T15:05:19;37.97;;;16.30;;
20671;SDS011;10495;50.922;4.760;2022-12-10T15:10:35;34.87;;;16.17;;
20671;SDS011;10495;50.922;4.760;2022-12-10T15:13:03;39.27;;;17.20;;
20671;SDS011;10495;50.922;4.760;2022-12-10T15:15:33;42.90;;;18.03;;
20671;SDS011;10495;50.922;4.760;2022-12-10T15:20:36;36.17;;;18.10;;
20671;SDS011;10495;50.922;4.760;2022-12-10T15:25:45;40.37;;;17.53;;
20671;SDS011;10495;50.922;4.760;2022-12-10T15:30:50;36.77;;;16.40;;
20671;SDS011;10495;50.922;4.760;2022-12-10T15:33:36;38.37;;;17.20;;
20671;SDS011;10495;50.922;4.760;2022-12-10T15:36:11;37.13;;;16.03;;
20671;SDS011;10495;50.922;4.760;2022-12-10T15:38:44;36.77;;;16.93;;
20671;SDS011;10495;50.922;4.760;2022-12-10T15:41:20;38.47;;;16.20;;
20671;SDS011;10495;50.922;4.760;2022-12-10T15:44:02;35.27;;;16.40;;
20671;SDS011;10495;50.922;4.760;2022-12-10T15:46:30;36.77;;;17.03;;
20671;SDS011;10495;50.922;4.760;2022-12-10T15:48:56;40.80;;;17.37;;
20671;SDS011;10495;50.922;4.760;2022-12-10T15:51:21;43.90;;;17.00;;
20671;SDS011;10495;50.922;4.760;2022-12-10T15:53:47;37.13;;;16.63;;
20671;SDS011;10495;50.922;4.760;2022-12-10T15:56:13;37.80;;;17.63;;
20671;SDS011;10495;50.922;4.760;2022-12-10T15:58:39;37.43;;;16.10;;
20671;SDS011;10495;50.922;4.760;2022-12-10T16:01:05;36.10;;;16.57;;
20671;SDS011;10495;50.922;4.760;2022-12-10T16:03:33;35.37;;;16.40;;
20671;SDS011;10495;50.922;4.760;2022-12-10T16:05:58;32.17;;;15.03;;
20671;SDS011;10495;50.922;4.760;2022-12-10T16:08:28;36.40;;;16.43;;
20671;SDS011;10495;50.922;4.760;2022-12-10T16:10:55;37.60;;;14.47;;
20671;SDS011;10495;50.922;4.760;2022-12-10T16:13:25;38.97;;;16.27;;
20671;SDS011;10495;50.922;4.760;2022-12-10T16:16:05;34.13;;;15.77;;
20671;SDS011;10495;50.922;4.760;2022-12-10T16:18:33;34.20;;;14.67;;
20671;SDS011;10495;50.922;4.760;2022-12-10T16:21:03;37.90;;;15.33;;
20671;SDS011;10495;50.922;4.760;2022-12-10T16:23:29;35.13;;;15.97;;
20671;SDS011;10495;50.922;4.760;2022-12-10T16:25:56;35.17;;;16.03;;
20671;SDS011;10495;50.922;4.760;2022-12-10T16:28:22;40.90;;;17.30;;
20671;SDS011;10495;50.922;4.760;2022-12-10T16:30:49;41.60;;;16.67;;
20671;SDS011;10495;50.922;4.760;2022-12-10T16:33:16;34.87;;;15.90;;
20671;SDS011;10495;50.922;4.760;2022-12-10T16:35:44;30.73;;;15.57;;
20671;SDS011;10495;50.922;4.760;2022-12-10T16:38:10;39.10;;;16.43;;
20671;SDS011;10495;50.922;4.760;2022-12-10T16:40:37;32.80;;;16.00;;
20671;SDS011;10495;50.922;4.760;2022-12-10T16:43:04;37.23;;;15.97;;
20671;SDS011;10495;50.922;4.760;2022-12-10T16:45:31;33.30;;;15.10;;
20671;SDS011;10495;50.922;4.760;2022-12-10T16:48:01;47.07;;;17.33;;
20671;SDS011;10495;50.922;4.760;2022-12-10T16:50:28;34.63;;;16.33;;
20671;SDS011;10495;50.922;4.760;2022-12-10T16:52:54;32.20;;;15.67;;
20671;SDS011;10495;50.922;4.760;2022-12-10T16:55:21;35.20;;;15.63;;
20671;SDS011;10495;50.922;4.760;2022-12-10T16:57:50;36.23;;;17.07;;
20671;SDS011;10495;50.922;4.760;2022-12-10T17:00:18;43.80;;;19.47;;
20671;SDS011;10495;50.922;4.760;2022-12-10T17:02:45;39.70;;;16.70;;
20671;SDS011;10495;50.922;4.760;2022-12-10T17:05:26;32.60;;;14.87;;
20671;SDS011;10495;50.922;4.760;2022-12-10T17:07:54;36.20;;;16.43;;